sensor_id;sensor_type;location;lat;lon;timestamp;P1;durP1;ratioP1;P2;durP2;ratioP2
21705;SDS011;11014;53.076;18.208;2023-12-29T00:01:31;10.50;;;6.45;;
21705;SDS011;11014;53.076;18.208;2023-12-29T00:04:00;10.75;;;6.53;;
21705;SDS011;11014;53.076;18.208;2023-12-29T00:06:28;9.63;;;6.05;;
21705;SDS011;11014;53.076;18.208;2023-12-29T00:08:57;11.13;;;6.47;;
21705;SDS011;11014;53.076;18.208;2023-12-29T00:11:55;12.10;;;6.40;;
21705;SDS011;11014;53.076;18.208;2023-12-29T00:14:24;12.40;;;7.10;;
21705;SDS011;11014;53.076;18.208;2023-12-29T00:19:52;11.63;;;6.63;;
21705;SDS011;11014;53.076;18.208;2023-12-29T00:22:21;12.38;;;6.75;;
21705;SDS011;11014;53.076;18.208;2023-12-29T00:24:50;11.52;;;6.70;;
21705;SDS011;11014;53.076;18.208;2023-12-29T00:27:26;11.48;;;6.45;;
21705;SDS011;11014;53.076;18.208;2023-12-29T00:29:54;12.18;;;6.55;;
21705;SDS011;11014;53.076;18.208;2023-12-29T00:35:20;11.75;;;7.07;;
21705;SDS011;11014;53.076;18.208;2023-12-29T00:37:54;13.30;;;7.33;;
21705;SDS011;11014;53.076;18.208;2023-12-29T00:51:19;13.25;;;6.72;;
21705;SDS011;11014;53.076;18.208;2023-12-29T00:53:48;10.60;;;6.18;;
21705;SDS011;11014;53.076;18.208;2023-12-29T00:56:16;10.70;;;6.10;;
21705;SDS011;11014;53.076;18.208;2023-12-29T01:01:41;11.20;;;6.03;;
21705;SDS011;11014;53.076;18.208;2023-12-29T01:04:11;10.35;;;6.22;;
21705;SDS011;11014;53.076;18.208;2023-12-29T01:06:40;10.43;;;6.18;;
21705;SDS011;11014;53.076;18.208;2023-12-29T01:12:18;12.45;;;5.90;;
21705;SDS011;11014;53.076;18.208;2023-12-29T01:15:04;9.40;;;6.03;;
21705;SDS011;11014;53.076;18.208;2023-12-29T01:18:01;9.55;;;5.35;;
21705;SDS011;11014;53.076;18.208;2023-12-29T01:20:44;12.73;;;6.10;;
21705;SDS011;11014;53.076;18.208;2023-12-29T01:23:12;9.35;;;5.63;;
21705;SDS011;11014;53.076;18.208;2023-12-29T01:25:42;8.90;;;5.50;;
21705;SDS011;11014;53.076;18.208;2023-12-29T01:28:10;10.57;;;5.75;;
21705;SDS011;11014;53.076;18.208;2023-12-29T01:30:39;11.07;;;5.70;;
21705;SDS011;11014;53.076;18.208;2023-12-29T01:33:27;9.07;;;5.88;;
21705;SDS011;11014;53.076;18.208;2023-12-29T01:37:04;9.10;;;5.32;;
21705;SDS011;11014;53.076;18.208;2023-12-29T01:42:27;10.38;;;5.68;;
21705;SDS011;11014;53.076;18.208;2023-12-29T01:45:03;8.93;;;5.85;;
21705;SDS011;11014;53.076;18.208;2023-12-29T01:47:34;10.98;;;6.05;;
21705;SDS011;11014;53.076;18.208;2023-12-29T01:50:02;8.82;;;5.63;;
21705;SDS011;11014;53.076;18.208;2023-12-29T01:52:31;8.98;;;5.82;;
21705;SDS011;11014;53.076;18.208;2023-12-29T01:55:01;10.07;;;5.78;;
21705;SDS011;11014;53.076;18.208;2023-12-29T01:57:30;8.45;;;5.70;;
21705;SDS011;11014;53.076;18.208;2023-12-29T02:00:03;9.65;;;5.75;;
21705;SDS011;11014;53.076;18.208;2023-12-29T02:02:39;8.25;;;5.00;;
21705;SDS011;11014;53.076;18.208;2023-12-29T02:05:08;10.95;;;5.38;;
21705;SDS011;11014;53.076;18.208;2023-12-29T02:07:41;8.80;;;5.15;;
21705;SDS011;11014;53.076;18.208;2023-12-29T02:10:10;8.32;;;5.50;;
21705;SDS011;11014;53.076;18.208;2023-12-29T02:12:42;7.75;;;5.07;;
21705;SDS011;11014;53.076;18.208;2023-12-29T02:15:11;9.45;;;5.55;;
21705;SDS011;11014;53.076;18.208;2023-12-29T02:17:45;10.40;;;5.40;;
21705;SDS011;11014;53.076;18.208;2023-12-29T02:20:19;9.60;;;5.15;;
21705;SDS011;11014;53.076;18.208;2023-12-29T02:22:48;7.55;;;5.45;;
21705;SDS011;11014;53.076;18.208;2023-12-29T02:25:17;10.10;;;5.55;;
21705;SDS011;11014;53.076;18.208;2023-12-29T02:27:49;7.35;;;4.93;;
21705;SDS011;11014;53.076;18.208;2023-12-29T02:33:46;8.38;;;5.57;;
21705;SDS011;11014;53.076;18.208;2023-12-29T02:36:17;7.82;;;5.50;;
21705;SDS011;11014;53.076;18.208;2023-12-29T02:38:46;7.78;;;4.90;;
21705;SDS011;11014;53.076;18.208;2023-12-29T02:41:20;8.30;;;4.78;;
21705;SDS011;11014;53.076;18.208;2023-12-29T02:43:49;8.98;;;5.20;;
21705;SDS011;11014;53.076;18.208;2023-12-29T02:46:18;9.45;;;5.53;;
21705;SDS011;11014;53.076;18.208;2023-12-29T02:48:46;8.10;;;5.05;;
21705;SDS011;11014;53.076;18.208;2023-12-29T02:51:16;8.75;;;4.80;;
21705;SDS011;11014;53.076;18.208;2023-12-29T02:53:45;10.35;;;5.13;;
21705;SDS011;11014;53.076;18.208;2023-12-29T02:56:17;8.20;;;5.22;;
21705;SDS011;11014;53.076;18.208;2023-12-29T02:58:47;10.85;;;5.38;;
21705;SDS011;11014;53.076;18.208;2023-12-29T03:01:16;7.20;;;5.05;;
21705;SDS011;11014;53.076;18.208;2023-12-29T03:03:44;14.15;;;5.85;;
21705;SDS011;11014;53.076;18.208;2023-12-29T03:09:17;8.38;;;5.00;;
21705;SDS011;11014;53.076;18.208;2023-12-29T03:11:56;8.07;;;5.20;;
21705;SDS011;11014;53.076;18.208;2023-12-29T03:14:24;7.38;;;5.13;;
21705;SDS011;11014;53.076;18.208;2023-12-29T03:16:53;6.93;;;4.70;;
21705;SDS011;11014;53.076;18.208;2023-12-29T03:19:21;7.60;;;4.82;;
21705;SDS011;11014;53.076;18.208;2023-12-29T03:21:50;7.57;;;5.00;;
21705;SDS011;11014;53.076;18.208;2023-12-29T03:24:19;10.15;;;5.10;;
21705;SDS011;11014;53.076;18.208;2023-12-29T03:26:49;8.80;;;5.03;;
21705;SDS011;11014;53.076;18.208;2023-12-29T03:29:17;8.15;;;5.00;;
21705;SDS011;11014;53.076;18.208;2023-12-29T03:31:47;9.38;;;4.97;;
21705;SDS011;11014;53.076;18.208;2023-12-29T03:34:16;6.85;;;4.50;;
21705;SDS011;11014;53.076;18.208;2023-12-29T03:36:58;6.00;;;4.32;;
21705;SDS011;11014;53.076;18.208;2023-12-29T03:39:27;7.88;;;4.78;;
21705;SDS011;11014;53.076;18.208;2023-12-29T03:41:56;8.88;;;5.25;;
21705;SDS011;11014;53.076;18.208;2023-12-29T03:44:24;7.97;;;4.70;;
21705;SDS011;11014;53.076;18.208;2023-12-29T03:46:52;7.50;;;4.30;;
21705;SDS011;11014;53.076;18.208;2023-12-29T03:49:21;6.13;;;4.78;;
21705;SDS011;11014;53.076;18.208;2023-12-29T03:51:50;8.10;;;4.45;;
21705;SDS011;11014;53.076;18.208;2023-12-29T03:54:19;7.43;;;4.18;;
21705;SDS011;11014;53.076;18.208;2023-12-29T03:56:50;7.82;;;4.45;;
21705;SDS011;11014;53.076;18.208;2023-12-29T03:59:19;5.80;;;4.28;;
21705;SDS011;11014;53.076;18.208;2023-12-29T04:01:48;8.20;;;4.38;;
21705;SDS011;11014;53.076;18.208;2023-12-29T04:04:17;7.85;;;4.57;;
21705;SDS011;11014;53.076;18.208;2023-12-29T04:06:46;7.78;;;4.50;;
21705;SDS011;11014;53.076;18.208;2023-12-29T04:09:14;6.47;;;4.50;;
21705;SDS011;11014;53.076;18.208;2023-12-29T04:11:44;8.13;;;4.35;;
21705;SDS011;11014;53.076;18.208;2023-12-29T04:14:12;8.40;;;4.13;;
21705;SDS011;11014;53.076;18.208;2023-12-29T04:16:41;7.47;;;4.38;;
21705;SDS011;11014;53.076;18.208;2023-12-29T04:19:11;7.38;;;3.85;;
21705;SDS011;11014;53.076;18.208;2023-12-29T04:21:43;7.07;;;4.63;;
21705;SDS011;11014;53.076;18.208;2023-12-29T04:24:12;6.00;;;3.92;;
21705;SDS011;11014;53.076;18.208;2023-12-29T04:26:41;7.03;;;3.92;;
21705;SDS011;11014;53.076;18.208;2023-12-29T04:29:09;6.80;;;4.35;;
21705;SDS011;11014;53.076;18.208;2023-12-29T04:31:38;6.97;;;4.70;;
21705;SDS011;11014;53.076;18.208;2023-12-29T04:34:06;7.68;;;4.15;;
21705;SDS011;11014;53.076;18.208;2023-12-29T04:36:35;6.82;;;3.35;;
21705;SDS011;11014;53.076;18.208;2023-12-29T04:39:03;7.10;;;4.00;;
21705;SDS011;11014;53.076;18.208;2023-12-29T04:41:32;6.72;;;4.10;;
21705;SDS011;11014;53.076;18.208;2023-12-29T04:44:00;5.60;;;4.15;;
21705;SDS011;11014;53.076;18.208;2023-12-29T04:46:29;6.75;;;3.92;;
21705;SDS011;11014;53.076;18.208;2023-12-29T04:48:58;5.63;;;3.72;;
21705;SDS011;11014;53.076;18.208;2023-12-29T04:51:27;7.13;;;4.10;;
21705;SDS011;11014;53.076;18.208;2023-12-29T04:53:56;5.70;;;3.95;;
21705;SDS011;11014;53.076;18.208;2023-12-29T04:56:24;5.43;;;3.58;;
21705;SDS011;11014;53.076;18.208;2023-12-29T04:58:53;5.50;;;3.40;;
21705;SDS011;11014;53.076;18.208;2023-12-29T05:01:22;4.75;;;3.20;;
21705;SDS011;11014;53.076;18.208;2023-12-29T05:03:50;7.20;;;3.55;;
21705;SDS011;11014;53.076;18.208;2023-12-29T05:06:19;4.40;;;3.47;;
21705;SDS011;11014;53.076;18.208;2023-12-29T05:08:48;5.35;;;3.55;;
21705;SDS011;11014;53.076;18.208;2023-12-29T05:11:16;5.05;;;3.33;;
21705;SDS011;11014;53.076;18.208;2023-12-29T05:13:45;4.78;;;3.20;;
21705;SDS011;11014;53.076;18.208;2023-12-29T05:16:14;4.57;;;3.33;;
21705;SDS011;11014;53.076;18.208;2023-12-29T05:18:43;6.22;;;3.28;;
21705;SDS011;11014;53.076;18.208;2023-12-29T05:21:15;6.05;;;3.10;;
21705;SDS011;11014;53.076;18.208;2023-12-29T05:23:46;6.43;;;3.03;;
21705;SDS011;11014;53.076;18.208;2023-12-29T05:26:16;6.10;;;3.10;;
21705;SDS011;11014;53.076;18.208;2023-12-29T05:28:45;4.95;;;3.40;;
21705;SDS011;11014;53.076;18.208;2023-12-29T05:31:14;6.05;;;3.17;;
21705;SDS011;11014;53.076;18.208;2023-12-29T05:33:43;4.78;;;2.85;;
21705;SDS011;11014;53.076;18.208;2023-12-29T05:36:14;5.07;;;3.20;;
21705;SDS011;11014;53.076;18.208;2023-12-29T05:38:45;5.30;;;3.20;;
21705;SDS011;11014;53.076;18.208;2023-12-29T05:41:15;4.38;;;2.63;;
21705;SDS011;11014;53.076;18.208;2023-12-29T05:43:43;4.45;;;3.20;;
21705;SDS011;11014;53.076;18.208;2023-12-29T05:46:13;8.43;;;3.60;;
21705;SDS011;11014;53.076;18.208;2023-12-29T05:48:41;5.82;;;3.17;;
21705;SDS011;11014;53.076;18.208;2023-12-29T05:51:11;4.70;;;3.63;;
21705;SDS011;11014;53.076;18.208;2023-12-29T05:53:41;4.13;;;3.20;;
21705;SDS011;11014;53.076;18.208;2023-12-29T05:56:13;4.88;;;3.20;;
21705;SDS011;11014;53.076;18.208;2023-12-29T05:58:42;5.40;;;2.97;;
21705;SDS011;11014;53.076;18.208;2023-12-29T06:01:11;5.22;;;3.13;;
21705;SDS011;11014;53.076;18.208;2023-12-29T06:03:40;4.90;;;3.65;;
21705;SDS011;11014;53.076;18.208;2023-12-29T06:06:09;5.05;;;3.10;;
21705;SDS011;11014;53.076;18.208;2023-12-29T06:08:37;5.63;;;3.40;;
21705;SDS011;11014;53.076;18.208;2023-12-29T06:11:06;4.82;;;3.47;;
21705;SDS011;11014;53.076;18.208;2023-12-29T06:13:34;4.63;;;3.10;;
21705;SDS011;11014;53.076;18.208;2023-12-29T06:16:03;4.53;;;3.13;;
21705;SDS011;11014;53.076;18.208;2023-12-29T06:18:32;4.30;;;3.05;;
21705;SDS011;11014;53.076;18.208;2023-12-29T06:21:02;5.78;;;3.25;;
21705;SDS011;11014;53.076;18.208;2023-12-29T06:23:31;6.00;;;3.50;;
21705;SDS011;11014;53.076;18.208;2023-12-29T06:25:59;4.45;;;3.45;;
21705;SDS011;11014;53.076;18.208;2023-12-29T06:28:28;5.10;;;2.92;;
21705;SDS011;11014;53.076;18.208;2023-12-29T06:30:56;3.95;;;2.83;;
21705;SDS011;11014;53.076;18.208;2023-12-29T06:33:25;3.70;;;3.08;;
21705;SDS011;11014;53.076;18.208;2023-12-29T06:35:54;4.72;;;3.10;;
21705;SDS011;11014;53.076;18.208;2023-12-29T06:38:22;6.32;;;3.50;;
21705;SDS011;11014;53.076;18.208;2023-12-29T06:40:52;5.70;;;3.22;;
21705;SDS011;11014;53.076;18.208;2023-12-29T06:43:20;5.97;;;3.58;;
21705;SDS011;11014;53.076;18.208;2023-12-29T06:45:49;6.53;;;3.03;;
21705;SDS011;11014;53.076;18.208;2023-12-29T06:48:17;4.63;;;3.20;;
21705;SDS011;11014;53.076;18.208;2023-12-29T06:50:48;4.00;;;2.88;;
21705;SDS011;11014;53.076;18.208;2023-12-29T06:53:17;3.78;;;2.80;;
21705;SDS011;11014;53.076;18.208;2023-12-29T06:55:45;5.13;;;3.20;;
21705;SDS011;11014;53.076;18.208;2023-12-29T06:58:14;3.65;;;2.60;;
21705;SDS011;11014;53.076;18.208;2023-12-29T07:00:43;4.78;;;3.10;;
21705;SDS011;11014;53.076;18.208;2023-12-29T07:03:13;5.60;;;3.50;;
21705;SDS011;11014;53.076;18.208;2023-12-29T07:05:43;5.53;;;3.10;;
21705;SDS011;11014;53.076;18.208;2023-12-29T07:08:15;5.55;;;3.15;;
21705;SDS011;11014;53.076;18.208;2023-12-29T07:10:45;5.75;;;3.60;;
21705;SDS011;11014;53.076;18.208;2023-12-29T07:13:16;4.90;;;3.30;;
21705;SDS011;11014;53.076;18.208;2023-12-29T07:15:46;5.15;;;2.75;;
21705;SDS011;11014;53.076;18.208;2023-12-29T07:18:16;4.73;;;2.90;;
21705;SDS011;11014;53.076;18.208;2023-12-29T07:20:46;6.45;;;3.05;;
21705;SDS011;11014;53.076;18.208;2023-12-29T07:23:14;4.15;;;2.95;;
21705;SDS011;11014;53.076;18.208;2023-12-29T07:25:43;4.70;;;3.25;;
21705;SDS011;11014;53.076;18.208;2023-12-29T07:28:11;4.10;;;2.97;;
21705;SDS011;11014;53.076;18.208;2023-12-29T07:30:40;4.55;;;3.10;;
21705;SDS011;11014;53.076;18.208;2023-12-29T07:33:08;4.85;;;3.00;;
21705;SDS011;11014;53.076;18.208;2023-12-29T07:35:37;4.50;;;2.90;;
21705;SDS011;11014;53.076;18.208;2023-12-29T07:38:06;5.43;;;3.00;;
21705;SDS011;11014;53.076;18.208;2023-12-29T07:40:35;4.85;;;3.08;;
21705;SDS011;11014;53.076;18.208;2023-12-29T07:43:03;3.28;;;2.85;;
21705;SDS011;11014;53.076;18.208;2023-12-29T07:45:32;3.67;;;3.03;;
21705;SDS011;11014;53.076;18.208;2023-12-29T07:48:04;3.15;;;2.10;;
21705;SDS011;11014;53.076;18.208;2023-12-29T07:50:37;5.10;;;2.90;;
21705;SDS011;11014;53.076;18.208;2023-12-29T07:53:06;3.88;;;2.90;;
21705;SDS011;11014;53.076;18.208;2023-12-29T07:55:37;4.57;;;2.90;;
21705;SDS011;11014;53.076;18.208;2023-12-29T07:58:07;4.32;;;2.90;;
21705;SDS011;11014;53.076;18.208;2023-12-29T08:00:38;3.50;;;2.40;;
21705;SDS011;11014;53.076;18.208;2023-12-29T08:03:07;4.75;;;2.97;;
21705;SDS011;11014;53.076;18.208;2023-12-29T08:05:36;3.22;;;2.60;;
21705;SDS011;11014;53.076;18.208;2023-12-29T08:08:05;4.22;;;2.80;;
21705;SDS011;11014;53.076;18.208;2023-12-29T08:10:34;1.90;;;1.58;;
21705;SDS011;11014;53.076;18.208;2023-12-29T08:13:02;4.68;;;2.72;;
21705;SDS011;11014;53.076;18.208;2023-12-29T08:15:32;3.53;;;2.50;;
21705;SDS011;11014;53.076;18.208;2023-12-29T08:18:01;5.78;;;2.95;;
21705;SDS011;11014;53.076;18.208;2023-12-29T08:20:30;4.97;;;2.38;;
21705;SDS011;11014;53.076;18.208;2023-12-29T08:22:59;4.45;;;2.50;;
21705;SDS011;11014;53.076;18.208;2023-12-29T08:25:31;3.53;;;2.47;;
21705;SDS011;11014;53.076;18.208;2023-12-29T08:27:59;4.47;;;2.75;;
21705;SDS011;11014;53.076;18.208;2023-12-29T08:30:29;4.93;;;2.80;;
21705;SDS011;11014;53.076;18.208;2023-12-29T08:32:57;3.25;;;2.35;;
21705;SDS011;11014;53.076;18.208;2023-12-29T08:35:26;4.90;;;2.92;;
21705;SDS011;11014;53.076;18.208;2023-12-29T08:37:54;4.85;;;2.72;;
21705;SDS011;11014;53.076;18.208;2023-12-29T08:40:23;7.50;;;3.42;;
21705;SDS011;11014;53.076;18.208;2023-12-29T08:42:52;5.22;;;3.17;;
21705;SDS011;11014;53.076;18.208;2023-12-29T08:45:21;5.78;;;3.05;;
21705;SDS011;11014;53.076;18.208;2023-12-29T08:47:49;6.60;;;3.15;;
21705;SDS011;11014;53.076;18.208;2023-12-29T08:50:18;5.60;;;3.35;;
21705;SDS011;11014;53.076;18.208;2023-12-29T08:52:47;4.78;;;3.13;;
21705;SDS011;11014;53.076;18.208;2023-12-29T08:55:15;4.00;;;2.78;;
21705;SDS011;11014;53.076;18.208;2023-12-29T08:57:44;4.18;;;2.75;;
21705;SDS011;11014;53.076;18.208;2023-12-29T09:00:13;4.53;;;3.17;;
21705;SDS011;11014;53.076;18.208;2023-12-29T09:02:41;6.22;;;3.00;;
21705;SDS011;11014;53.076;18.208;2023-12-29T09:05:10;4.00;;;3.00;;
21705;SDS011;11014;53.076;18.208;2023-12-29T09:07:39;5.55;;;3.08;;
21705;SDS011;11014;53.076;18.208;2023-12-29T09:10:08;4.70;;;2.83;;
21705;SDS011;11014;53.076;18.208;2023-12-29T09:12:39;6.28;;;3.40;;
21705;SDS011;11014;53.076;18.208;2023-12-29T09:15:09;6.50;;;3.58;;
21705;SDS011;11014;53.076;18.208;2023-12-29T09:17:38;5.20;;;3.45;;
21705;SDS011;11014;53.076;18.208;2023-12-29T09:20:06;5.85;;;3.33;;
21705;SDS011;11014;53.076;18.208;2023-12-29T09:22:38;4.20;;;2.40;;
21705;SDS011;11014;53.076;18.208;2023-12-29T09:25:07;6.32;;;3.03;;
21705;SDS011;11014;53.076;18.208;2023-12-29T09:27:36;5.35;;;3.00;;
21705;SDS011;11014;53.076;18.208;2023-12-29T09:30:05;3.80;;;2.53;;
21705;SDS011;11014;53.076;18.208;2023-12-29T09:32:35;5.45;;;2.58;;
21705;SDS011;11014;53.076;18.208;2023-12-29T09:35:04;4.25;;;2.67;;
21705;SDS011;11014;53.076;18.208;2023-12-29T09:37:32;5.22;;;2.58;;
21705;SDS011;11014;53.076;18.208;2023-12-29T09:40:01;4.80;;;2.85;;
21705;SDS011;11014;53.076;18.208;2023-12-29T09:42:30;4.85;;;2.90;;
21705;SDS011;11014;53.076;18.208;2023-12-29T09:45:02;3.15;;;2.85;;
21705;SDS011;11014;53.076;18.208;2023-12-29T09:47:36;3.38;;;2.17;;
21705;SDS011;11014;53.076;18.208;2023-12-29T09:50:10;4.60;;;2.70;;
21705;SDS011;11014;53.076;18.208;2023-12-29T09:52:49;5.65;;;2.80;;
21705;SDS011;11014;53.076;18.208;2023-12-29T09:55:20;3.30;;;2.40;;
21705;SDS011;11014;53.076;18.208;2023-12-29T09:57:49;3.80;;;1.95;;
21705;SDS011;11014;53.076;18.208;2023-12-29T10:00:18;3.92;;;2.45;;
21705;SDS011;11014;53.076;18.208;2023-12-29T10:02:50;3.85;;;2.45;;
21705;SDS011;11014;53.076;18.208;2023-12-29T10:05:26;4.55;;;2.70;;
21705;SDS011;11014;53.076;18.208;2023-12-29T10:07:55;3.22;;;2.20;;
21705;SDS011;11014;53.076;18.208;2023-12-29T10:10:27;4.95;;;1.90;;
21705;SDS011;11014;53.076;18.208;2023-12-29T10:12:58;4.18;;;2.30;;
21705;SDS011;11014;53.076;18.208;2023-12-29T10:18:25;4.10;;;2.13;;
21705;SDS011;11014;53.076;18.208;2023-12-29T10:21:13;4.00;;;1.70;;
21705;SDS011;11014;53.076;18.208;2023-12-29T10:24:05;3.72;;;1.90;;
21705;SDS011;11014;53.076;18.208;2023-12-29T10:26:41;3.40;;;1.63;;
21705;SDS011;11014;53.076;18.208;2023-12-29T10:29:11;2.15;;;1.58;;
21705;SDS011;11014;53.076;18.208;2023-12-29T10:31:44;2.53;;;1.58;;
21705;SDS011;11014;53.076;18.208;2023-12-29T10:34:23;1.98;;;1.52;;
21705;SDS011;11014;53.076;18.208;2023-12-29T10:36:58;2.75;;;1.70;;
21705;SDS011;11014;53.076;18.208;2023-12-29T10:39:27;2.28;;;1.60;;
21705;SDS011;11014;53.076;18.208;2023-12-29T10:42:03;1.80;;;1.40;;
21705;SDS011;11014;53.076;18.208;2023-12-29T10:44:36;3.45;;;1.40;;
21705;SDS011;11014;53.076;18.208;2023-12-29T10:47:07;2.90;;;1.27;;
21705;SDS011;11014;53.076;18.208;2023-12-29T10:49:39;1.83;;;1.55;;
21705;SDS011;11014;53.076;18.208;2023-12-29T10:52:12;3.10;;;1.50;;
21705;SDS011;11014;53.076;18.208;2023-12-29T10:54:42;3.05;;;1.38;;
21705;SDS011;11014;53.076;18.208;2023-12-29T10:57:12;2.42;;;1.60;;
21705;SDS011;11014;53.076;18.208;2023-12-29T10:59:41;3.08;;;2.00;;
21705;SDS011;11014;53.076;18.208;2023-12-29T11:02:13;4.53;;;2.20;;
21705;SDS011;11014;53.076;18.208;2023-12-29T11:04:46;3.05;;;1.77;;
21705;SDS011;11014;53.076;18.208;2023-12-29T11:07:14;2.53;;;1.70;;
21705;SDS011;11014;53.076;18.208;2023-12-29T11:09:43;2.20;;;1.48;;
21705;SDS011;11014;53.076;18.208;2023-12-29T11:12:12;2.50;;;1.60;;
21705;SDS011;11014;53.076;18.208;2023-12-29T11:14:42;3.28;;;1.63;;
21705;SDS011;11014;53.076;18.208;2023-12-29T11:17:14;2.10;;;1.40;;
21705;SDS011;11014;53.076;18.208;2023-12-29T11:19:45;1.65;;;1.45;;
21705;SDS011;11014;53.076;18.208;2023-12-29T11:22:16;2.58;;;1.60;;
21705;SDS011;11014;53.076;18.208;2023-12-29T11:24:46;2.88;;;1.60;;
21705;SDS011;11014;53.076;18.208;2023-12-29T11:27:16;1.55;;;1.38;;
21705;SDS011;11014;53.076;18.208;2023-12-29T11:29:45;3.05;;;1.70;;
21705;SDS011;11014;53.076;18.208;2023-12-29T11:32:16;2.97;;;1.67;;
21705;SDS011;11014;53.076;18.208;2023-12-29T11:34:51;2.58;;;1.42;;
21705;SDS011;11014;53.076;18.208;2023-12-29T11:41:16;2.33;;;1.40;;
21705;SDS011;11014;53.076;18.208;2023-12-29T11:43:31;5.70;;;1.80;;
21705;SDS011;11014;53.076;18.208;2023-12-29T11:46:00;2.03;;;1.50;;
21705;SDS011;11014;53.076;18.208;2023-12-29T11:51:27;3.05;;;1.30;;
21705;SDS011;11014;53.076;18.208;2023-12-29T11:53:57;2.13;;;1.30;;
21705;SDS011;11014;53.076;18.208;2023-12-29T11:56:30;3.83;;;1.90;;
21705;SDS011;11014;53.076;18.208;2023-12-29T12:01:51;3.63;;;1.60;;
21705;SDS011;11014;53.076;18.208;2023-12-29T12:04:34;2.08;;;1.60;;
21705;SDS011;11014;53.076;18.208;2023-12-29T12:07:05;3.35;;;1.50;;
21705;SDS011;11014;53.076;18.208;2023-12-29T12:09:41;3.72;;;1.88;;
21705;SDS011;11014;53.076;18.208;2023-12-29T12:12:09;3.55;;;1.88;;
21705;SDS011;11014;53.076;18.208;2023-12-29T12:14:49;1.88;;;1.48;;
21705;SDS011;11014;53.076;18.208;2023-12-29T12:17:28;4.00;;;1.75;;
21705;SDS011;11014;53.076;18.208;2023-12-29T12:19:59;2.58;;;1.73;;
21705;SDS011;11014;53.076;18.208;2023-12-29T12:22:31;2.75;;;2.42;;
21705;SDS011;11014;53.076;18.208;2023-12-29T12:25:05;2.35;;;1.38;;
21705;SDS011;11014;53.076;18.208;2023-12-29T12:27:36;4.05;;;1.67;;
21705;SDS011;11014;53.076;18.208;2023-12-29T12:30:07;3.13;;;2.22;;
21705;SDS011;11014;53.076;18.208;2023-12-29T12:32:38;3.00;;;2.05;;
21705;SDS011;11014;53.076;18.208;2023-12-29T12:35:13;2.67;;;1.73;;
21705;SDS011;11014;53.076;18.208;2023-12-29T12:37:47;4.13;;;1.90;;
21705;SDS011;11014;53.076;18.208;2023-12-29T12:40:28;3.83;;;1.60;;
21705;SDS011;11014;53.076;18.208;2023-12-29T12:42:57;4.00;;;2.03;;
21705;SDS011;11014;53.076;18.208;2023-12-29T12:45:26;3.50;;;1.80;;
21705;SDS011;11014;53.076;18.208;2023-12-29T12:48:01;3.65;;;1.80;;
21705;SDS011;11014;53.076;18.208;2023-12-29T12:50:32;3.78;;;2.20;;
21705;SDS011;11014;53.076;18.208;2023-12-29T12:53:00;4.35;;;2.20;;
21705;SDS011;11014;53.076;18.208;2023-12-29T12:55:34;4.22;;;1.98;;
21705;SDS011;11014;53.076;18.208;2023-12-29T12:58:03;3.50;;;1.90;;
21705;SDS011;11014;53.076;18.208;2023-12-29T13:00:33;3.65;;;2.17;;
21705;SDS011;11014;53.076;18.208;2023-12-29T13:03:02;4.63;;;2.30;;
21705;SDS011;11014;53.076;18.208;2023-12-29T13:05:31;2.55;;;1.67;;
21705;SDS011;11014;53.076;18.208;2023-12-29T13:08:00;4.75;;;2.20;;
21705;SDS011;11014;53.076;18.208;2023-12-29T13:10:31;3.57;;;2.00;;
21705;SDS011;11014;53.076;18.208;2023-12-29T13:13:00;4.32;;;2.20;;
21705;SDS011;11014;53.076;18.208;2023-12-29T13:15:34;4.65;;;2.08;;
21705;SDS011;11014;53.076;18.208;2023-12-29T13:18:03;6.47;;;2.72;;
21705;SDS011;11014;53.076;18.208;2023-12-29T13:20:42;3.33;;;2.17;;
21705;SDS011;11014;53.076;18.208;2023-12-29T13:25:43;5.57;;;2.10;;
21705;SDS011;11014;53.076;18.208;2023-12-29T13:28:12;3.63;;;1.88;;
21705;SDS011;11014;53.076;18.208;2023-12-29T13:30:42;3.33;;;2.20;;
21705;SDS011;11014;53.076;18.208;2023-12-29T13:33:15;4.05;;;2.50;;
21705;SDS011;11014;53.076;18.208;2023-12-29T13:35:54;5.45;;;2.50;;
21705;SDS011;11014;53.076;18.208;2023-12-29T13:38:36;4.47;;;2.28;;
21705;SDS011;11014;53.076;18.208;2023-12-29T13:41:12;3.25;;;2.25;;
21705;SDS011;11014;53.076;18.208;2023-12-29T13:43:43;5.80;;;2.88;;
21705;SDS011;11014;53.076;18.208;2023-12-29T13:46:15;4.47;;;2.30;;
21705;SDS011;11014;53.076;18.208;2023-12-29T13:48:44;5.43;;;2.40;;
21705;SDS011;11014;53.076;18.208;2023-12-29T13:51:15;3.55;;;2.28;;
21705;SDS011;11014;53.076;18.208;2023-12-29T13:53:46;4.63;;;2.00;;
21705;SDS011;11014;53.076;18.208;2023-12-29T13:56:14;3.75;;;2.38;;
21705;SDS011;11014;53.076;18.208;2023-12-29T13:58:43;4.30;;;2.40;;
21705;SDS011;11014;53.076;18.208;2023-12-29T14:01:20;3.78;;;2.10;;
21705;SDS011;11014;53.076;18.208;2023-12-29T14:03:51;4.80;;;2.47;;
21705;SDS011;11014;53.076;18.208;2023-12-29T14:06:32;4.38;;;2.55;;
21705;SDS011;11014;53.076;18.208;2023-12-29T14:09:14;3.78;;;2.25;;
21705;SDS011;11014;53.076;18.208;2023-12-29T14:11:45;6.28;;;2.72;;
21705;SDS011;11014;53.076;18.208;2023-12-29T14:14:20;5.03;;;2.70;;
21705;SDS011;11014;53.076;18.208;2023-12-29T14:16:51;4.80;;;2.15;;
21705;SDS011;11014;53.076;18.208;2023-12-29T14:19:20;6.82;;;3.00;;
21705;SDS011;11014;53.076;18.208;2023-12-29T14:21:50;7.15;;;2.85;;
21705;SDS011;11014;53.076;18.208;2023-12-29T14:24:22;8.07;;;3.17;;
21705;SDS011;11014;53.076;18.208;2023-12-29T14:29:25;9.63;;;5.70;;
21705;SDS011;11014;53.076;18.208;2023-12-29T14:31:55;8.60;;;4.00;;
21705;SDS011;11014;53.076;18.208;2023-12-29T14:34:28;5.80;;;3.00;;
21705;SDS011;11014;53.076;18.208;2023-12-29T14:36:57;5.75;;;2.70;;
21705;SDS011;11014;53.076;18.208;2023-12-29T14:39:25;4.05;;;2.90;;
21705;SDS011;11014;53.076;18.208;2023-12-29T14:41:54;7.90;;;3.40;;
21705;SDS011;11014;53.076;18.208;2023-12-29T14:47:16;9.30;;;3.58;;
21705;SDS011;11014;53.076;18.208;2023-12-29T14:49:45;7.82;;;3.70;;
21705;SDS011;11014;53.076;18.208;2023-12-29T14:52:14;6.88;;;3.97;;
21705;SDS011;11014;53.076;18.208;2023-12-29T14:54:42;6.40;;;3.78;;
21705;SDS011;11014;53.076;18.208;2023-12-29T14:57:11;7.75;;;3.70;;
21705;SDS011;11014;53.076;18.208;2023-12-29T14:59:48;8.80;;;3.95;;
21705;SDS011;11014;53.076;18.208;2023-12-29T15:02:16;8.30;;;5.18;;
21705;SDS011;11014;53.076;18.208;2023-12-29T15:04:44;7.65;;;4.93;;
21705;SDS011;11014;53.076;18.208;2023-12-29T15:07:14;7.93;;;4.13;;
21705;SDS011;11014;53.076;18.208;2023-12-29T15:09:43;8.48;;;4.68;;
21705;SDS011;11014;53.076;18.208;2023-12-29T15:12:12;8.68;;;4.30;;
21705;SDS011;11014;53.076;18.208;2023-12-29T15:14:40;7.95;;;3.80;;
21705;SDS011;11014;53.076;18.208;2023-12-29T15:17:09;7.15;;;3.88;;
21705;SDS011;11014;53.076;18.208;2023-12-29T15:19:38;6.78;;;3.70;;
21705;SDS011;11014;53.076;18.208;2023-12-29T15:22:06;7.65;;;4.25;;
21705;SDS011;11014;53.076;18.208;2023-12-29T15:24:35;11.10;;;6.25;;
21705;SDS011;11014;53.076;18.208;2023-12-29T15:27:03;15.55;;;8.48;;
21705;SDS011;11014;53.076;18.208;2023-12-29T15:29:32;11.27;;;5.85;;
21705;SDS011;11014;53.076;18.208;2023-12-29T15:32:01;9.02;;;4.38;;
21705;SDS011;11014;53.076;18.208;2023-12-29T15:34:30;7.88;;;4.00;;
21705;SDS011;11014;53.076;18.208;2023-12-29T15:36:59;7.25;;;3.70;;
21705;SDS011;11014;53.076;18.208;2023-12-29T15:39:31;9.07;;;4.10;;
21705;SDS011;11014;53.076;18.208;2023-12-29T15:42:00;8.65;;;4.10;;
21705;SDS011;11014;53.076;18.208;2023-12-29T15:44:28;9.35;;;3.75;;
21705;SDS011;11014;53.076;18.208;2023-12-29T15:46:57;8.10;;;4.30;;